Pickle Lake Airport
CYPL : now visible

Airfield :











YOU CAN JOIN US ON...

 
LOGIN :

Register | Disclaimer

   EN    FR    IT 

 









Legend :    VFR   Marginal VFR   IFR   Intensive IFR   Very Intensive IFR
Visi :
Ceiling :
>= 8 km
>= 3000ft
5 to 8 km
1000 to 3000 ft
1500m to 5 km
500 to 1000 ft
800 to 1500m
200 to 500 ft
< 800m
< 200 ft
Symbols :   Thunderstorms  Fog  Heavy snow  Heavy precipitations  Wind > 20 kt






- Airport Elevation : 1267 ft
- IATA code : YPL


CYPL - Pickle Lake

CURRENT METAR :
  • 281600Z AUTO 21015G23KT 190V260 9SM SCT120 20/01 A2977 RMK SLP086 DENSITY ALT 2300FT

EXPIRED METARs :
  • 281500Z AUTO 23014G36KT 180V270 9SM SCT100 20/01 A2979 RMK SLP092 DENSITY ALT 2200FT
  • 281400Z AUTO 19010G16KT 9SM OVC100 18/05 A2980 RMK SLP096 DENSITY ALT 2000FT

TAF TAF CYPL
Valid from the 28 at 14:00 until the 29 at 02:00 UTC


281330Z 2814/2902 22010G20KT P6SM SCT100
FM281800 26010KT P6SM BKN080
BECMG 2823/2901 30012KT BKN060 RMK FCST BASED ON AUTO OBS. NXT FCST BY 282000Z
CZWG FIR / North America



MET'MAP, your aeronautical weather chart ! - Copyright ORBIFLY December 2007 - Disclaimer

ORBIFLY MET'MAP TEAM :

Programming & Development : Alexandra Zaïnal
Concept & original design : Baudouin d'Aumeries
Assistance for programming : Marc-Olivier Méhu
Technical & hardware support : Manuel Goepfert

Contact : metmap@orbifly.com




SOURCES & CREDITS :

   NOAA       Earth
Advisory